Time;durP1;ratioP1;P1;durP2;ratioP2;P2;SDS_P1;SDS_P2;PMS_P1;PMS_P2;Temp;Humidity;BMP_temperature;BMP_pressure;BME280_temperature;BME280_humidity;BME280_pressure;Samples;Min_cycle;Max_cycle;Signal;HPM_P1;HPM_P2
2021/09/29 00:00:13;;;;;;;6.73;2.77;;;;;;;8.34;96.78;100793.09;4965676;28;20109;-60
2021/09/29 00:02:58;;;;;;;6.45;2.03;;;;;;;8.29;96.82;100794.34;4971742;28;20519;-61
2021/09/29 00:05:45;;;;;;;5.63;2.20;;;;;;;8.24;97.23;100800.06;4971810;28;20062;-65
2021/09/29 00:08:30;;;;;;;5.57;2.13;;;;;;;8.18;97.58;100790.69;4966747;28;20086;-59
2021/09/29 00:11:15;;;;;;;3.75;2.22;;;;;;;8.17;97.73;100780.13;4970506;28;20054;-59
2021/09/29 00:14:00;;;;;;;4.10;2.00;;;;;;;8.17;97.75;100777.44;4971090;28;20109;-60
2021/09/29 00:16:45;;;;;;;4.60;2.13;;;;;;;8.16;97.74;100783.72;4972280;28;20397;-58
2021/09/29 00:19:30;;;;;;;3.28;2.00;;;;;;;8.19;97.49;100778.19;4970683;28;20552;-57
2021/09/29 00:22:16;;;;;;;5.03;2.22;;;;;;;8.19;97.55;100778.19;4971671;28;20077;-58
2021/09/29 00:25:01;;;;;;;3.25;2.17;;;;;;;8.16;97.33;100770.38;4971342;28;20139;-56
2021/09/29 00:27:47;;;;;;;4.57;2.00;;;;;;;8.15;97.31;100772.19;4969672;28;20129;-59
2021/09/29 00:30:36;;;;;;;3.22;1.80;;;;;;;8.16;97.27;100762.34;4972440;28;20054;-58
2021/09/29 00:33:21;;;;;;;3.60;2.10;;;;;;;8.19;96.90;100768.34;4965768;28;20054;-59
2021/09/29 00:36:06;;;;;;;3.78;2.13;;;;;;;8.13;96.75;100762.59;4971472;28;20083;-58
2021/09/29 00:38:53;;;;;;;5.53;2.40;;;;;;;8.10;96.93;100773.50;4970594;28;20186;-61
2021/09/29 00:41:39;;;;;;;4.15;2.08;;;;;;;8.01;97.10;100769.69;4971703;28;20071;-59
2021/09/29 00:44:24;;;;;;;2.80;1.98;;;;;;;7.88;97.18;100764.44;4963392;28;20054;-59
2021/09/29 00:47:09;;;;;;;4.97;2.22;;;;;;;7.82;97.22;100764.91;4968358;28;20058;-60
2021/09/29 00:49:54;;;;;;;5.43;2.40;;;;;;;7.82;97.64;100764.03;4969850;28;20058;-59
2021/09/29 00:52:41;;;;;;;4.82;1.95;;;;;;;7.83;97.53;100758.59;4970958;28;20147;-59
2021/09/29 00:55:27;;;;;;;4.53;2.20;;;;;;;7.85;97.49;100753.13;4963976;28;20069;-58
2021/09/29 00:58:12;;;;;;;3.53;2.30;;;;;;;7.88;97.37;100748.38;4971849;28;20117;-59
2021/09/29 01:00:58;;;;;;;3.10;2.05;;;;;;;7.91;97.69;100739.28;4971054;28;20069;-58
2021/09/29 01:03:45;;;;;;;6.18;2.22;;;;;;;7.96;97.46;100738.94;4971375;28;20057;-61
2021/09/29 01:06:36;;;;;;;4.53;2.53;;;;;;;7.91;97.56;100742.81;4965406;28;20057;-59
2021/09/29 01:09:25;;;;;;;4.38;2.30;;;;;;;7.91;97.68;100734.78;4964210;28;20061;-61
2021/09/29 01:12:19;;;;;;;3.33;1.92;;;;;;;7.91;97.45;100733.94;4970105;28;20094;-60
2021/09/29 01:15:08;;;;;;;6.03;2.33;;;;;;;7.88;97.58;100724.34;4969359;28;20061;-62
2021/09/29 01:17:58;;;;;;;5.68;1.90;;;;;;;7.84;97.79;100730.88;4966398;28;20615;-56
2021/09/29 01:20:47;;;;;;;3.67;2.00;;;;;;;7.89;97.77;100727.84;4970385;28;20178;-58
2021/09/29 01:23:50;;;;;;;3.80;2.60;;;;;;;7.84;97.73;100714.00;4969603;28;20193;-60
2021/09/29 01:26:39;;;;;;;4.93;2.33;;;;;;;7.88;97.49;100705.63;4970499;28;20053;-60
2021/09/29 01:29:24;;;;;;;4.65;2.58;;;;;;;7.89;97.61;100701.97;4970267;28;20405;-58
2021/09/29 01:32:09;;;;;;;3.25;2.30;;;;;;;7.89;97.56;100701.97;4966418;28;20046;-55
2021/09/29 01:34:56;;;;;;;3.55;2.42;;;;;;;7.98;97.89;100696.91;4971176;28;20555;-58
2021/09/29 01:37:41;;;;;;;3.75;2.60;;;;;;;7.89;97.86;100696.63;4968737;28;20054;-61
2021/09/29 01:40:27;;;;;;;4.70;3.17;;;;;;;8.00;97.72;100686.97;4970477;28;20065;-62
2021/09/29 01:43:13;;;;;;;11.65;2.65;;;;;;;7.85;97.39;100692.50;4968628;28;20066;-57
2021/09/29 01:45:58;;;;;;;4.00;2.60;;;;;;;7.82;97.28;100678.53;4970149;28;20131;-60
2021/09/29 01:48:51;;;;;;;4.70;2.47;;;;;;;7.73;97.53;100680.06;4970898;28;20564;-56
2021/09/29 01:51:38;;;;;;;4.93;2.55;;;;;;;7.81;97.85;100671.44;4968921;28;20057;-57
2021/09/29 01:54:26;;;;;;;4.22;2.53;;;;;;;7.74;97.63;100672.91;4971164;28;20129;-61
2021/09/29 01:57:12;;;;;;;5.40;2.80;;;;;;;7.73;98.16;100674.72;4965884;28;20057;-55
2021/09/29 01:59:58;;;;;;;8.88;3.15;;;;;;;7.71;98.10;100671.31;4970890;28;20058;-59
2021/09/29 02:02:44;;;;;;;9.70;3.65;;;;;;;7.67;97.96;100668.97;4969289;28;20053;-63
2021/09/29 02:05:32;;;;;;;6.35;3.17;;;;;;;7.65;98.16;100668.25;4970881;28;20106;-64
2021/09/29 02:08:18;;;;;;;4.00;2.50;;;;;;;7.60;98.60;100666.78;4971115;28;20066;-63
2021/09/29 02:11:03;;;;;;;4.45;2.40;;;;;;;7.59;98.46;100661.56;4969440;28;20057;-63
2021/09/29 02:13:48;;;;;;;3.67;2.45;;;;;;;7.61;98.27;100662.28;4970002;28;20713;-58
2021/09/29 02:16:35;;;;;;;4.07;2.22;;;;;;;7.57;98.49;100658.13;4969900;28;20085;-60
2021/09/29 02:19:21;;;;;;;5.93;3.08;;;;;;;7.65;98.24;100655.75;4969063;28;20053;-62
2021/09/29 02:22:06;;;;;;;5.90;2.40;;;;;;;7.66;98.09;100644.06;4964817;28;20094;-64
2021/09/29 02:24:51;;;;;;;6.68;2.35;;;;;;;7.63;98.19;100647.00;4970148;28;20146;-60
2021/09/29 02:27:36;;;;;;;5.13;2.40;;;;;;;7.58;98.39;100647.34;4969626;28;20478;-61
2021/09/29 02:30:22;;;;;;;6.75;2.65;;;;;;;7.59;98.49;100645.53;4972108;28;20054;-61
2021/09/29 02:33:08;;;;;;;3.60;2.25;;;;;;;7.55;98.32;100641.38;4971689;28;20049;-60
2021/09/29 02:35:54;;;;;;;3.97;2.42;;;;;;;7.53;98.18;100641.47;4970781;28;20420;-66
2021/09/29 02:38:39;;;;;;;6.63;2.30;;;;;;;7.59;98.30;100646.38;4973909;28;20134;-63
2021/09/29 02:41:25;;;;;;;4.60;2.47;;;;;;;7.62;98.28;100640.78;4973870;28;20117;-64
2021/09/29 02:44:11;;;;;;;4.03;2.25;;;;;;;7.66;98.41;100637.88;4970080;28;20178;-65
2021/09/29 02:46:56;;;;;;;5.75;2.65;;;;;;;7.68;98.45;100644.81;4965809;28;20058;-61
2021/09/29 02:49:42;;;;;;;4.85;2.78;;;;;;;7.73;98.09;100636.47;4973366;28;20523;-64
2021/09/29 02:52:27;;;;;;;6.60;2.80;;;;;;;7.74;98.03;100630.16;4965487;28;20058;-63
2021/09/29 02:55:12;;;;;;;7.15;2.92;;;;;;;7.72;97.53;100640.13;4965347;28;20061;-61
2021/09/29 02:57:57;;;;;;;6.32;2.67;;;;;;;7.73;97.54;100631.13;4972675;28;20402;-62
2021/09/29 03:00:42;;;;;;;3.92;2.60;;;;;;;7.71;97.79;100628.56;4972968;28;20054;-59
2021/09/29 03:03:28;;;;;;;5.82;3.05;;;;;;;7.72;97.97;100629.44;4973438;28;20058;-62
2021/09/29 03:06:14;;;;;;;5.15;3.10;;;;;;;7.71;98.15;100623.22;4973895;28;20424;-66
2021/09/29 03:08:59;;;;;;;5.72;3.15;;;;;;;7.68;98.23;100618.09;4973526;28;20121;-63
2021/09/29 03:11:44;;;;;;;5.75;2.80;;;;;;;7.65;98.32;100613.00;4972229;28;20526;-61
2021/09/29 03:14:29;;;;;;;7.70;2.97;;;;;;;7.66;98.73;100612.03;4972578;28;20069;-60
2021/09/29 03:17:14;;;;;;;5.00;3.15;;;;;;;7.66;98.68;100619.19;4968791;28;20077;-65
2021/09/29 03:19:59;;;;;;;5.70;2.67;;;;;;;7.65;98.32;100606.81;4973372;28;20061;-64
2021/09/29 03:22:45;;;;;;;6.60;3.38;;;;;;;7.66;98.43;100606.69;4972154;28;20049;-62
2021/09/29 03:25:30;;;;;;;;;;;;;;;7.66;98.57;100597.81;4974880;28;20057;-61
2021/09/29 03:28:15;;;;;;;8.45;3.28;;;;;;;7.70;98.79;100597.47;4973439;28;19945;-60
2021/09/29 03:31:00;;;;;;;5.53;3.10;;;;;;;7.84;99.38;100599.09;4971270;28;20069;-62
2021/09/29 03:33:45;;;;;;;4.57;2.75;;;;;;;8.04;99.70;100598.38;4971510;28;20531;-58
2021/09/29 03:36:30;;;;;;;8.38;3.80;;;;;;;8.19;99.72;100597.19;4969579;28;20182;-60
2021/09/29 03:39:17;;;;;;;4.03;2.90;;;;;;;8.32;99.14;100593.56;4971813;28;20417;-58
2021/09/29 03:42:02;;;;;;;5.43;2.63;;;;;;;8.46;98.56;100594.19;4971210;28;20073;-59
2021/09/29 03:44:47;;;;;;;3.78;2.60;;;;;;;8.58;98.28;100589.69;4973453;28;20421;-58
2021/09/29 03:47:33;;;;;;;5.47;2.77;;;;;;;8.65;97.42;100590.06;4972687;28;20057;-63
2021/09/29 03:50:19;;;;;;;4.50;2.90;;;;;;;8.68;96.78;100589.81;4972263;28;20054;-61
2021/09/29 03:53:04;;;;;;;5.30;2.72;;;;;;;8.73;95.36;100592.94;4971951;28;20507;-59
2021/09/29 03:55:50;;;;;;;6.25;2.78;;;;;;;8.69;96.06;100586.16;4973487;28;20062;-58
2021/09/29 03:58:35;;;;;;;5.15;2.70;;;;;;;8.69;96.72;100580.81;4973523;28;20106;-60
2021/09/29 04:01:20;;;;;;;5.50;2.70;;;;;;;8.74;96.81;100581.28;4971918;28;20077;-60
2021/09/29 04:04:05;;;;;;;8.02;3.17;;;;;;;8.83;96.71;100583.22;4972906;28;20057;-65
2021/09/29 04:06:50;;;;;;;7.07;4.25;;;;;;;8.95;97.29;100584.03;4972714;28;20129;-63
2021/09/29 04:09:35;;;;;;;8.83;3.97;;;;;;;9.06;97.68;100576.81;4969762;28;20433;-65
2021/09/29 04:12:44;;;;;;;13.10;6.68;;;;;;;9.11;98.37;100572.91;4972648;28;20124;-65
2021/09/29 04:15:30;;;;;;;11.88;6.75;;;;;;;9.13;98.37;100570.97;4969588;28;20061;-65
2021/09/29 04:18:15;;;;;;;13.68;6.63;;;;;;;9.14;98.13;100561.97;4972741;28;20065;-61
2021/09/29 04:21:01;;;;;;;15.83;6.40;;;;;;;9.13;98.34;100558.44;4973262;28;20183;-64
2021/09/29 04:23:46;;;;;;;20.80;5.82;;;;;;;9.12;98.38;100570.13;4972188;28;20133;-62
2021/09/29 04:26:31;;;;;;;12.87;5.10;;;;;;;9.03;98.16;100555.66;4969628;28;20078;-62
2021/09/29 04:29:18;;;;;;;20.75;5.55;;;;;;;9.02;98.42;100562.00;4971629;28;20065;-61
2021/09/29 04:32:04;;;;;;;25.67;5.78;;;;;;;8.96;98.66;100559.81;4967895;28;20404;-62
2021/09/29 04:34:49;;;;;;;31.33;5.18;;;;;;;8.93;98.90;100552.03;4972558;28;20057;-62
2021/09/29 04:37:34;;;;;;;20.77;4.68;;;;;;;8.93;99.08;100546.69;4970975;28;20062;-60
2021/09/29 04:40:19;;;;;;;6.93;3.60;;;;;;;8.97;99.15;100560.66;4967959;28;20062;-64
2021/09/29 04:43:04;;;;;;;6.07;3.30;;;;;;;9.01;99.31;100549.59;4972117;28;20132;-63
2021/09/29 04:45:50;;;;;;;25.85;4.68;;;;;;;9.01;99.02;100552.28;4971235;28;20070;-64
2021/09/29 04:48:35;;;;;;;8.45;4.22;;;;;;;9.04;99.36;100552.00;4973261;28;20065;-63
2021/09/29 04:51:20;;;;;;;9.88;4.53;;;;;;;9.07;99.53;100557.09;4972416;28;20102;-64
2021/09/29 04:54:05;;;;;;;6.55;3.80;;;;;;;9.12;99.12;100543.34;4971861;28;20072;-64
2021/09/29 04:56:51;;;;;;;9.32;3.75;;;;;;;9.12;98.57;100542.50;4965501;28;20543;-66
2021/09/29 04:59:36;;;;;;;12.73;3.92;;;;;;;9.09;98.53;100539.06;4965717;28;20117;-55
2021/09/29 05:02:24;;;;;;;6.15;3.83;;;;;;;9.09;98.82;100536.41;4970644;28;20077;-58
2021/09/29 05:05:09;;;;;;;9.85;4.90;;;;;;;9.10;98.67;100537.25;4971253;28;20069;-60
2021/09/29 05:07:57;;;;;;;13.53;4.27;;;;;;;9.12;99.22;100539.81;4970517;28;20191;-60
2021/09/29 05:10:51;;;;;;;8.13;4.35;;;;;;;9.14;99.31;100536.03;4968674;28;20684;-64
2021/09/29 05:13:36;;;;;;;12.95;4.72;;;;;;;9.22;99.08;100535.38;4967669;28;20488;-59
2021/09/29 05:16:21;;;;;;;8.27;3.73;;;;;;;9.28;98.94;100532.19;4971341;28;20524;-60
2021/09/29 05:19:07;;;;;;;10.88;4.63;;;;;;;9.32;98.75;100538.97;4971514;28;20721;-61
2021/09/29 05:21:52;;;;;;;14.57;5.45;;;;;;;9.36;98.60;100530.59;4971011;28;20462;-59
2021/09/29 05:24:38;;;;;;;9.18;5.13;;;;;;;9.41;98.58;100532.00;4958277;28;20101;-59
2021/09/29 05:27:23;;;;;;;29.88;6.18;;;;;;;9.42;98.31;100526.53;4969834;28;20061;-61
2021/09/29 05:30:09;;;;;;;32.42;6.53;;;;;;;9.42;98.18;100517.63;4963565;28;20065;-58
2021/09/29 05:32:54;;;;;;;19.52;6.68;;;;;;;9.45;98.52;100520.03;4965840;28;20053;-58
2021/09/29 05:35:41;;;;;;;11.53;5.73;;;;;;;9.51;98.78;100511.50;4969389;28;20065;-63
2021/09/29 05:38:26;;;;;;;15.35;5.45;;;;;;;9.49;98.31;100495.56;4969915;28;20313;-61
2021/09/29 05:41:12;;;;;;;28.03;7.00;;;;;;;9.46;98.63;100490.44;4967619;28;20118;-57
2021/09/29 05:43:57;;;;;;;20.05;5.93;;;;;;;9.50;99.12;100493.72;4969409;28;20049;-61
2021/09/29 05:46:42;;;;;;;12.23;5.53;;;;;;;9.60;99.35;100500.84;4962376;28;20121;-61
2021/09/29 05:49:27;;;;;;;8.20;4.93;;;;;;;9.66;99.30;100505.66;4962825;28;20054;-61
2021/09/29 05:52:13;;;;;;;16.58;6.63;;;;;;;9.73;99.06;100513.19;4970001;28;20057;-61
2021/09/29 05:54:59;;;;;;;18.60;7.75;;;;;;;9.74;98.72;100506.84;4969938;28;20571;-61
2021/09/29 05:57:44;;;;;;;16.65;6.68;;;;;;;9.78;98.55;100494.88;4969675;28;20560;-61
2021/09/29 06:00:29;;;;;;;25.98;8.35;;;;;;;9.75;98.26;100493.31;4970317;28;20137;-59
2021/09/29 06:03:15;;;;;;;27.73;8.18;;;;;;;9.79;98.55;100483.16;4960473;28;20058;-61
2021/09/29 06:06:01;;;;;;;19.83;8.27;;;;;;;9.83;98.99;100487.28;4967683;28;20093;-60
2021/09/29 06:08:47;;;;;;;27.60;9.80;;;;;;;9.92;98.83;100478.44;4974592;28;20136;-62
2021/09/29 06:11:32;;;;;;;15.15;6.93;;;;;;;10.01;98.53;100474.09;4969003;28;20129;-63
2021/09/29 06:14:18;;;;;;;28.13;8.45;;;;;;;10.04;98.27;100477.34;4973869;28;20057;-60
2021/09/29 06:17:12;;;;;;;18.17;7.55;;;;;;;10.09;98.05;100479.66;4973612;28;20050;-62
2021/09/29 06:19:57;;;;;;;11.52;6.03;;;;;;;10.20;97.52;100472.34;4967657;28;20054;-62
2021/09/29 06:22:41;;;;;;;20.77;7.93;;;;;;;10.17;97.55;100459.19;4973460;28;20129;-59
2021/09/29 06:25:29;;;;;;;28.33;9.57;;;;;;;10.21;97.75;100462.47;4974191;28;20057;-62
2021/09/29 06:28:14;;;;;;;18.67;8.60;;;;;;;10.24;97.73;100473.78;4972334;28;20725;-61
2021/09/29 06:30:59;;;;;;;12.32;6.07;;;;;;;10.30;97.71;100460.81;4973338;28;20054;-61
2021/09/29 06:33:45;;;;;;;12.35;5.57;;;;;;;10.36;97.60;100465.63;4969182;28;20049;-60
2021/09/29 06:36:30;;;;;;;20.73;8.30;;;;;;;10.36;97.12;100455.75;4965975;28;20081;-58
2021/09/29 06:39:15;;;;;;;20.85;9.45;;;;;;;10.39;97.49;100454.63;4974123;28;20080;-61
2021/09/29 06:42:02;;;;;;;21.30;8.95;;;;;;;10.40;96.77;100445.59;4973477;28;20533;-62
2021/09/29 06:44:47;;;;;;;23.63;9.10;;;;;;;10.42;97.30;100447.16;4972405;28;20183;-59
2021/09/29 06:47:32;;;;;;;19.05;9.23;;;;;;;10.49;97.00;100444.75;4966156;28;20142;-60
2021/09/29 06:50:19;;;;;;;18.20;8.38;;;;;;;10.52;96.92;100449.84;4972456;28;20058;-61
2021/09/29 06:53:04;;;;;;;21.98;10.00;;;;;;;10.38;97.09;100448.41;4972689;28;20050;-62
2021/09/29 06:55:50;;;;;;;19.00;8.40;;;;;;;10.42;97.06;100449.00;4967981;28;20053;-62
2021/09/29 06:58:37;;;;;;;17.93;7.83;;;;;;;10.43;97.42;100439.97;4973217;28;20057;-62
2021/09/29 07:01:22;;;;;;;19.58;8.15;;;;;;;10.47;97.43;100436.00;4972073;28;20061;-63
2021/09/29 07:04:07;;;;;;;25.35;10.43;;;;;;;10.47;97.68;100441.38;4973081;28;20170;-60
2021/09/29 07:06:51;;;;;;;23.42;10.43;;;;;;;10.40;97.58;100440.22;4971188;28;20054;-61
2021/09/29 07:09:36;;;;;;;24.90;9.70;;;;;;;10.42;98.13;100430.22;4973429;28;20062;-60
2021/09/29 07:12:21;;;;;;;16.05;7.43;;;;;;;10.48;97.98;100437.69;4973242;28;20049;-60
2021/09/29 07:15:09;;;;;;;16.02;7.78;;;;;;;10.53;97.70;100438.13;4973519;28;20073;-61
2021/09/29 07:17:57;;;;;;;22.25;8.45;;;;;;;10.52;97.58;100444.47;4966759;28;20178;-60
2021/09/29 07:20:43;;;;;;;19.10;8.48;;;;;;;10.50;97.61;100435.72;4972726;28;20057;-61
2021/09/29 07:23:30;;;;;;;20.83;9.20;;;;;;;10.57;97.67;100433.34;4973198;28;20058;-59
2021/09/29 07:26:15;;;;;;;21.08;8.93;;;;;;;10.61;97.59;100438.28;4966088;28;20073;-62
2021/09/29 07:29:00;;;;;;;14.43;7.00;;;;;;;10.65;97.63;100439.69;4972699;28;20137;-60
2021/09/29 07:31:46;;;;;;;18.90;8.88;;;;;;;10.72;97.84;100438.16;4973103;28;20054;-61
2021/09/29 07:34:31;;;;;;;19.88;8.55;;;;;;;10.77;97.69;100438.59;4970083;28;20065;-61
2021/09/29 07:37:16;;;;;;;19.52;8.00;;;;;;;10.80;97.26;100440.16;4972775;28;20105;-61
2021/09/29 07:40:01;;;;;;;27.00;10.20;;;;;;;10.81;97.25;100434.63;4965881;28;20062;-62
2021/09/29 07:42:46;;;;;;;27.75;10.15;;;;;;;10.83;96.84;100438.03;4972281;28;20104;-61
2021/09/29 07:45:32;;;;;;;16.52;6.68;;;;;;;10.87;96.58;100440.41;4968984;28;20609;-62
2021/09/29 07:48:18;;;;;;;25.10;10.18;;;;;;;10.78;96.81;100437.59;4972946;28;20106;-61
2021/09/29 07:51:03;;;;;;;14.88;6.50;;;;;;;10.86;96.44;100431.50;4970723;28;20058;-60
2021/09/29 07:53:48;;;;;;;18.92;9.15;;;;;;;10.90;96.07;100435.63;4965838;28;20054;-63
2021/09/29 07:56:33;;;;;;;20.05;9.02;;;;;;;10.86;96.93;100438.72;4971446;28;20066;-63
2021/09/29 07:59:18;;;;;;;18.33;8.38;;;;;;;10.90;96.68;100432.94;4971715;28;20204;-63
2021/09/29 08:02:03;;;;;;;22.23;9.02;;;;;;;10.97;96.68;100422.47;4971593;28;20477;-62
2021/09/29 08:04:50;;;;;;;21.20;7.55;;;;;;;11.08;97.03;100425.00;4971576;28;20061;-65
2021/09/29 08:07:35;;;;;;;22.05;8.10;;;;;;;11.22;96.83;100427.25;4965251;28;20065;-63
2021/09/29 08:10:20;;;;;;;14.95;7.20;;;;;;;11.28;96.52;100429.38;4970563;28;20122;-64
2021/09/29 08:13:05;;;;;;;15.70;6.65;;;;;;;11.32;96.27;100422.69;4967542;28;20069;-62
2021/09/29 08:15:50;;;;;;;17.23;7.03;;;;;;;11.37;96.31;100417.75;4965112;28;20126;-63
2021/09/29 08:18:35;;;;;;;18.23;7.15;;;;;;;11.48;96.17;100416.72;4970749;28;20211;-63
2021/09/29 08:21:27;;;;;;;13.90;6.55;;;;;;;11.55;95.86;100415.16;4961554;28;20073;-65
2021/09/29 08:24:15;;;;;;;20.02;10.45;;;;;;;11.62;94.99;100405.53;4971889;28;20098;-65
2021/09/29 08:27:05;;;;;;;23.52;11.27;;;;;;;11.60;94.82;100412.00;4971912;28;20098;-65
2021/09/29 08:30:04;;;;;;;22.08;8.40;;;;;;;11.60;95.05;100415.56;4970567;28;20077;-65
2021/09/29 08:32:55;;;;;;;22.80;8.52;;;;;;;11.60;95.51;100412.88;4970122;28;20049;-65
2021/09/29 08:35:46;;;;;;;16.02;7.80;;;;;;;11.60;95.67;100420.94;4970392;28;20121;-62
2021/09/29 08:38:34;;;;;;;14.55;7.57;;;;;;;11.62;95.80;100410.03;4972394;28;20141;-63
2021/09/29 08:41:36;;;;;;;17.77;7.80;;;;;;;11.70;95.93;100402.91;4971564;28;20568;-63
2021/09/29 08:44:26;;;;;;;13.63;7.32;;;;;;;11.85;95.74;100403.34;4971718;28;20053;-63
2021/09/29 08:47:16;;;;;;;13.65;6.63;;;;;;;11.92;95.59;100395.50;4970516;28;20461;-64
2021/09/29 08:50:12;;;;;;;8.93;4.70;;;;;;;12.05;95.06;100400.53;4966395;28;20058;-63
2021/09/29 08:53:29;;;;;;;17.90;7.40;;;;;;;12.19;94.78;100391.94;4971341;28;20393;-64
2021/09/29 09:14:53;;;;;;;20.85;9.98;;;;;;;13.32;92.84;100356.28;4965581;28;20053;-60
2021/09/29 09:17:40;;;;;;;20.35;9.60;;;;;;;13.68;92.02;100347.06;4969868;28;20080;-61
2021/09/29 09:20:26;;;;;;;21.23;10.07;;;;;;;14.00;90.55;100335.56;4971341;28;20520;-60
2021/09/29 09:23:11;;;;;;;;;;;;;;;14.11;90.90;100336.25;4965290;28;20057;-60
2021/09/29 09:25:56;;;;;;;26.00;12.15;;;;;;;14.27;90.73;100350.63;4969697;28;20292;-59
2021/09/29 09:28:43;;;;;;;24.30;10.75;;;;;;;14.60;90.26;100348.88;4971054;28;20065;-61
2021/09/29 09:31:29;;;;;;;25.95;11.52;;;;;;;14.78;89.65;100350.53;4971214;28;20073;-61
2021/09/29 09:34:13;;;;;;;20.90;10.63;;;;;;;14.87;89.97;100358.50;4969320;28;20062;-63
2021/09/29 09:36:59;;;;;;;27.23;12.98;;;;;;;14.78;89.05;100356.78;4964024;28;20405;-61
2021/09/29 09:39:44;;;;;;;22.67;11.77;;;;;;;15.04;89.37;100356.63;4971068;28;20053;-61
2021/09/29 09:42:39;;;;;;;25.88;12.27;;;;;;;15.25;87.60;100342.56;4972860;28;20058;-60
2021/09/29 09:45:41;;;;;;;22.23;11.68;;;;;;;15.55;87.13;100353.66;4966520;28;20062;-61
2021/09/29 09:48:28;;;;;;;21.73;10.95;;;;;;;15.72;86.06;100358.88;4964308;28;20062;-60
2021/09/29 09:51:15;;;;;;;18.15;10.25;;;;;;;15.67;85.73;100365.84;4967416;28;20524;-60
2021/09/29 09:54:00;;;;;;;22.63;12.30;;;;;;;15.62;86.76;100352.81;4969790;28;20505;-61
2021/09/29 09:56:52;;;;;;;26.48;12.48;;;;;;;15.44;85.93;100355.72;4963077;28;20062;-59
2021/09/29 09:59:37;;;;;;;20.05;11.05;;;;;;;15.54;86.35;100357.38;4969216;28;20081;-62
2021/09/29 10:02:23;;;;;;;22.95;11.93;;;;;;;15.36;85.88;100347.63;4969993;28;20151;-60
2021/09/29 10:05:10;;;;;;;24.30;13.93;;;;;;;15.18;86.89;100341.59;4969812;28;20128;-64
2021/09/29 10:07:55;;;;;;;23.25;12.70;;;;;;;14.96;88.18;100340.41;4970326;28;20179;-63
2021/09/29 10:10:50;;;;;;;21.55;11.93;;;;;;;14.79;89.42;100347.66;4965660;28;20524;-62
2021/09/29 10:23:16;;;;;;;27.90;12.95;;;;;;;14.63;90.67;100344.97;4932010;28;20062;-64
2021/09/29 10:26:14;;;;;;;28.00;14.80;;;;;;;14.46;90.83;100337.88;4968066;28;20100;-61
2021/09/29 10:29:05;;;;;;;27.15;14.70;;;;;;;14.67;89.11;100334.66;4965194;28;20090;-62
2021/09/29 10:32:03;;;;;;;24.67;14.98;;;;;;;14.89;88.12;100331.28;4962454;28;20074;-60
2021/09/29 10:34:59;;;;;;;26.73;14.20;;;;;;;14.98;87.97;100348.34;4970231;28;20413;-62
2021/09/29 10:40:16;;;;;;;33.08;16.58;;;;;;;15.05;87.64;100344.81;4965107;28;20065;-64
2021/09/29 10:44:19;;;;;;;30.20;15.30;;;;;;;15.48;82.05;100335.41;4967322;28;20137;-61
2021/09/29 10:47:14;;;;;;;22.38;13.52;;;;;;;15.89;80.96;100319.06;4965234;28;20057;-63
2021/09/29 10:50:35;;;;;;;26.70;14.98;;;;;;;15.82;80.77;100318.06;4969240;28;20547;-60
2021/09/29 11:09:04;;;;;;;22.27;13.52;;;;;;;16.83;77.23;100311.69;4968680;28;20317;-59
2021/09/29 11:12:07;;;;;;;20.45;12.60;;;;;;;16.74;77.15;100313.63;4967837;28;20151;-63
2021/09/29 11:30:19;;;;;;;16.45;10.35;;;;;;;16.25;77.71;100300.41;4973177;28;20054;-60
2021/09/29 11:33:06;;;;;;;15.90;10.07;;;;;;;16.35;79.80;100313.72;4967696;28;20073;-62
2021/09/29 11:35:59;;;;;;;18.83;11.32;;;;;;;16.47;78.78;100309.56;4970495;28;20065;-63
2021/09/29 12:09:52;;;;;;;12.68;6.97;;;;;;;17.39;73.83;100290.44;4966688;28;20074;-63
2021/09/29 12:12:42;;;;;;;17.17;7.38;;;;;;;17.61;73.42;100294.91;4966751;28;20049;-61
2021/09/29 12:15:27;;;;;;;12.60;8.48;;;;;;;17.10;74.98;100292.09;4971694;28;20062;-60
2021/09/29 12:18:13;;;;;;;12.13;7.38;;;;;;;17.54;74.04;100283.97;4970346;28;20469;-60
2021/09/29 12:20:58;;;;;;;;;;;;;;;17.87;71.23;100286.28;4959042;28;20090;-61
2021/09/29 12:23:50;;;;;;;11.30;7.28;;;;;;;18.14;69.99;100276.59;4970342;28;20392;-59
2021/09/29 12:26:45;;;;;;;11.20;6.10;;;;;;;18.28;69.51;100272.97;4971997;28;20058;-62
2021/09/29 12:29:34;;;;;;;16.35;7.28;;;;;;;18.28;67.52;100275.69;4965083;28;20057;-62
2021/09/29 12:32:44;;;;;;;11.82;6.53;;;;;;;18.15;66.82;100278.28;4971029;28;20053;-62
2021/09/29 12:35:43;;;;;;;7.35;5.53;;;;;;;17.81;68.76;100273.50;4969588;28;20118;-61
2021/09/29 12:38:35;;;;;;;8.55;5.35;;;;;;;17.51;67.09;100281.63;4966911;28;20062;-60
2021/09/29 12:41:22;;;;;;;9.02;5.07;;;;;;;17.95;67.01;100269.88;4967505;28;20077;-62
2021/09/29 12:44:13;;;;;;;8.30;4.60;;;;;;;18.53;67.07;100278.03;4969739;28;20045;-63
2021/09/29 12:47:08;;;;;;;7.57;4.47;;;;;;;19.35;62.35;100282.88;4963001;28;20540;-63
2021/09/29 12:49:54;;;;;;;8.02;4.03;;;;;;;19.22;62.56;100270.88;4971902;28;20081;-62
2021/09/29 12:52:47;;;;;;;7.20;3.65;;;;;;;19.28;63.83;100272.75;4970222;28;20061;-63
2021/09/29 12:55:36;;;;;;;8.75;4.95;;;;;;;18.98;64.77;100272.16;4969854;28;20138;-63
2021/09/29 12:58:22;;;;;;;5.53;4.07;;;;;;;19.29;62.32;100260.84;4966247;28;20062;-63
2021/09/29 13:01:09;;;;;;;10.70;5.18;;;;;;;18.96;65.49;100274.25;4969249;28;20614;-66
2021/09/29 13:03:54;;;;;;;6.55;5.05;;;;;;;18.92;62.78;100261.22;4966047;28;20257;-62
2021/09/29 13:06:39;;;;;;;8.43;4.55;;;;;;;19.07;64.04;100258.41;4969395;28;20061;-60
2021/09/29 13:09:23;;;;;;;15.60;4.90;;;;;;;19.24;64.29;100257.06;4969887;28;20125;-61
2021/09/29 13:12:22;;;;;;;9.03;4.17;;;;;;;18.97;65.92;100264.22;4968734;28;20049;-65
2021/09/29 13:15:08;;;;;;;9.25;4.60;;;;;;;18.79;63.87;100248.38;4969331;28;20050;-63
2021/09/29 13:17:56;;;;;;;7.30;4.38;;;;;;;18.68;64.69;100259.78;4969774;28;20054;-65
2021/09/29 13:20:43;;;;;;;7.65;4.18;;;;;;;18.54;66.13;100260.69;4966688;28;20054;-63
2021/09/29 13:23:31;;;;;;;9.80;4.75;;;;;;;18.49;63.83;100247.69;4962243;28;20372;-63
2021/09/29 13:26:29;;;;;;;6.88;4.95;;;;;;;18.39;64.93;100263.47;4968904;28;20090;-65
2021/09/29 13:38:24;;;;;;;6.35;4.15;;;;;;;19.31;61.10;100249.78;4972441;28;20547;-64
2021/09/29 13:41:09;;;;;;;6.38;3.50;;;;;;;20.65;55.06;100247.28;4971968;28;20516;-63
2021/09/29 13:43:54;;;;;;;4.80;3.00;;;;;;;22.06;50.69;100245.69;4971015;28;20065;-62
2021/09/29 13:46:40;;;;;;;3.20;2.30;;;;;;;23.49;47.82;100248.50;4971988;28;20380;-63
2021/09/29 13:49:24;;;;;;;;;;;;;;;23.25;45.29;100250.22;4970451;28;20054;-64
2021/09/29 13:52:12;;;;;;;6.38;2.58;;;;;;;24.09;43.62;100245.00;4968431;28;19929;-64
2021/09/29 13:55:00;;;;;;;4.07;2.22;;;;;;;24.77;42.81;100245.47;4967186;28;20050;-65
2021/09/29 13:57:51;;;;;;;4.57;2.08;;;;;;;25.03;40.51;100254.34;4967973;28;20066;-64
2021/09/29 14:00:45;;;;;;;5.72;2.30;;;;;;;25.87;41.36;100252.91;4964306;28;20057;-64
2021/09/29 14:03:50;;;;;;;5.00;2.50;;;;;;;25.91;37.82;100243.09;4962173;28;20516;-63
2021/09/29 14:31:03;;;;;;;3.72;1.63;;;;;;;25.26;37.08;100235.09;4972505;28;20496;-64
2021/09/29 14:33:49;;;;;;;3.47;1.40;;;;;;;25.86;36.93;100234.75;4970569;28;20062;-65
2021/09/29 14:36:34;;;;;;;3.72;1.48;;;;;;;25.04;40.19;100247.75;4965325;28;20053;-64
2021/09/29 14:39:19;;;;;;;;;;;;;;;25.62;37.38;100238.63;4973555;28;20137;-63
2021/09/29 14:42:06;;;;;;;4.15;1.30;;;;;;;26.02;37.78;100232.28;4973468;28;20089;-65
2021/09/29 14:44:51;;;;;;;3.75;1.73;;;;;;;25.32;37.55;100236.03;4973430;28;20529;-65
2021/09/29 14:47:36;;;;;;;2.20;1.35;;;;;;;25.99;37.13;100239.13;4972162;28;20066;-65
2021/09/29 14:50:26;;;;;;;4.22;1.60;;;;;;;25.05;39.29;100235.72;4972105;28;20062;-66
2021/09/29 14:53:11;;;;;;;3.40;1.52;;;;;;;24.87;38.28;100230.31;4971393;28;20061;-63
2021/09/29 14:55:57;;;;;;;6.63;1.75;;;;;;;24.52;39.28;100239.34;4968832;28;20500;-67
2021/09/29 14:58:43;;;;;;;;;;;;;;;24.58;38.91;100238.38;4973172;28;20057;-65
2021/09/29 15:01:29;;;;;;;5.07;1.40;;;;;;;24.60;38.90;100232.66;4965032;28;19929;-62
2021/09/29 15:06:51;;;;;;;3.38;1.27;;;;;;;24.10;40.21;100231.06;4950153;29;20054;-63